logo
Search for airport 
image banner adimage banner adimage banner ad
image banner ad

LOSU - Salzburg Ukh

Located in District Salzburg(Stadt), Austria

ICAO - , IATA -

Data provided by Airmate  

General information

Coordinates: N47°47'59" E13°3'23"
Elevation is 1479 feet MSL.
 
View others Airports in Salzburg

Operational data

Special qualification required
Current time UTC:
Current local time:
Weather at : LOWS - Salzburg ( 4 km )
METAR: LOWS 130620Z AUTO 14007KT CAVOK 13/09 Q1031 NOSIG
TAF: TAF LOWS 130515Z 1306/1406 15006KT CAVOK TX24/1315Z TN12/1306Z BECMG 1308/1310 34006KT BECMG 1316/1318 15005KT
View NOTAMs / SUP AIP / TFR affecting this airport [VIEW]
Communications frequencies: [VIEW]

Runways:

Airport contact information

Address: District Salzburg(Stadt) Austria

Satellite view of LOSU